sensor_id;sensor_type;location;lat;lon;timestamp;P1;durP1;ratioP1;P2;durP2;ratioP2
25391;SDS011;13329;48.402;11.718;2023-02-28T00:00:27;4.40;;;1.92;;
25391;SDS011;13329;48.402;11.718;2023-02-28T00:02:53;2.47;;;1.92;;
25391;SDS011;13329;48.402;11.718;2023-02-28T00:05:19;4.07;;;1.77;;
25391;SDS011;13329;48.402;11.718;2023-02-28T00:07:44;2.80;;;1.67;;
25391;SDS011;13329;48.402;11.718;2023-02-28T00:10:11;4.55;;;1.63;;
25391;SDS011;13329;48.402;11.718;2023-02-28T00:12:36;2.92;;;2.13;;
25391;SDS011;13329;48.402;11.718;2023-02-28T00:15:02;3.95;;;1.80;;
25391;SDS011;13329;48.402;11.718;2023-02-28T00:17:29;4.03;;;1.70;;
25391;SDS011;13329;48.402;11.718;2023-02-28T00:19:54;5.53;;;1.77;;
25391;SDS011;13329;48.402;11.718;2023-02-28T00:22:20;4.03;;;2.08;;
25391;SDS011;13329;48.402;11.718;2023-02-28T00:24:46;2.78;;;1.75;;
25391;SDS011;13329;48.402;11.718;2023-02-28T00:27:11;4.32;;;2.17;;
25391;SDS011;13329;48.402;11.718;2023-02-28T00:29:37;2.85;;;1.88;;
25391;SDS011;13329;48.402;11.718;2023-02-28T00:32:02;3.57;;;1.97;;
25391;SDS011;13329;48.402;11.718;2023-02-28T00:34:28;4.80;;;2.08;;
25391;SDS011;13329;48.402;11.718;2023-02-28T00:36:53;3.22;;;2.13;;
25391;SDS011;13329;48.402;11.718;2023-02-28T00:39:18;4.03;;;2.03;;
25391;SDS011;13329;48.402;11.718;2023-02-28T00:41:43;6.53;;;2.00;;
25391;SDS011;13329;48.402;11.718;2023-02-28T00:44:09;3.27;;;1.70;;
25391;SDS011;13329;48.402;11.718;2023-02-28T00:46:34;2.80;;;2.17;;
25391;SDS011;13329;48.402;11.718;2023-02-28T00:48:59;2.58;;;1.90;;
25391;SDS011;13329;48.402;11.718;2023-02-28T00:51:24;2.67;;;1.73;;
25391;SDS011;13329;48.402;11.718;2023-02-28T00:53:49;3.43;;;1.87;;
25391;SDS011;13329;48.402;11.718;2023-02-28T00:56:14;3.90;;;1.87;;
25391;SDS011;13329;48.402;11.718;2023-02-28T00:58:40;2.23;;;1.87;;
25391;SDS011;13329;48.402;11.718;2023-02-28T01:01:05;2.80;;;1.70;;
25391;SDS011;13329;48.402;11.718;2023-02-28T01:03:30;4.55;;;1.90;;
25391;SDS011;13329;48.402;11.718;2023-02-28T01:05:55;4.57;;;1.80;;
25391;SDS011;13329;48.402;11.718;2023-02-28T01:08:21;5.93;;;2.93;;
25391;SDS011;13329;48.402;11.718;2023-02-28T01:10:46;4.57;;;1.95;;
25391;SDS011;13329;48.402;11.718;2023-02-28T01:13:12;2.58;;;1.88;;
25391;SDS011;13329;48.402;11.718;2023-02-28T01:15:38;3.90;;;2.20;;
25391;SDS011;13329;48.402;11.718;2023-02-28T01:18:04;3.95;;;1.77;;
25391;SDS011;13329;48.402;11.718;2023-02-28T01:20:29;4.27;;;2.00;;
25391;SDS011;13329;48.402;11.718;2023-02-28T01:22:54;2.38;;;1.70;;
25391;SDS011;13329;48.402;11.718;2023-02-28T01:25:20;4.30;;;2.17;;
25391;SDS011;13329;48.402;11.718;2023-02-28T01:27:45;11.20;;;2.23;;
25391;SDS011;13329;48.402;11.718;2023-02-28T01:30:10;3.00;;;1.77;;
25391;SDS011;13329;48.402;11.718;2023-02-28T01:32:36;3.03;;;2.05;;
25391;SDS011;13329;48.402;11.718;2023-02-28T01:35:01;4.03;;;2.03;;
25391;SDS011;13329;48.402;11.718;2023-02-28T01:37:26;3.63;;;2.00;;
25391;SDS011;13329;48.402;11.718;2023-02-28T01:39:51;7.07;;;2.00;;
25391;SDS011;13329;48.402;11.718;2023-02-28T01:42:16;3.63;;;2.22;;
25391;SDS011;13329;48.402;11.718;2023-02-28T01:47:27;3.65;;;2.22;;
25391;SDS011;13329;48.402;11.718;2023-02-28T01:49:53;6.90;;;2.20;;
25391;SDS011;13329;48.402;11.718;2023-02-28T01:52:19;3.78;;;2.30;;
25391;SDS011;13329;48.402;11.718;2023-02-28T01:54:45;6.95;;;2.88;;
25391;SDS011;13329;48.402;11.718;2023-02-28T01:57:13;5.47;;;2.50;;
25391;SDS011;13329;48.402;11.718;2023-02-28T01:59:41;6.97;;;1.95;;
25391;SDS011;13329;48.402;11.718;2023-02-28T02:02:11;4.45;;;1.90;;
25391;SDS011;13329;48.402;11.718;2023-02-28T02:04:42;3.28;;;1.80;;
25391;SDS011;13329;48.402;11.718;2023-02-28T02:07:11;2.83;;;2.35;;
25391;SDS011;13329;48.402;11.718;2023-02-28T02:09:37;3.85;;;2.28;;
25391;SDS011;13329;48.402;11.718;2023-02-28T02:12:05;4.38;;;1.70;;
25391;SDS011;13329;48.402;11.718;2023-02-28T02:33:18;4.97;;;2.35;;
25391;SDS011;13329;48.402;11.718;2023-02-28T02:35:56;3.92;;;1.90;;
25391;SDS011;13329;48.402;11.718;2023-02-28T02:38:28;3.40;;;2.08;;
25391;SDS011;13329;48.402;11.718;2023-02-28T02:43:39;3.42;;;2.63;;
25391;SDS011;13329;48.402;11.718;2023-02-28T02:46:19;5.18;;;2.30;;
25391;SDS011;13329;48.402;11.718;2023-02-28T02:48:45;4.85;;;2.63;;
25391;SDS011;13329;48.402;11.718;2023-02-28T02:51:13;3.70;;;2.42;;
25391;SDS011;13329;48.402;11.718;2023-02-28T02:53:53;6.72;;;2.63;;
25391;SDS011;13329;48.402;11.718;2023-02-28T02:56:21;11.18;;;2.33;;
25391;SDS011;13329;48.402;11.718;2023-02-28T02:58:48;6.25;;;2.72;;
25391;SDS011;13329;48.402;11.718;2023-02-28T03:01:23;4.82;;;2.55;;
25391;SDS011;13329;48.402;11.718;2023-02-28T03:03:56;5.78;;;2.22;;
25391;SDS011;13329;48.402;11.718;2023-02-28T03:06:22;7.85;;;2.83;;
25391;SDS011;13329;48.402;11.718;2023-02-28T03:08:47;4.57;;;2.40;;
25391;SDS011;13329;48.402;11.718;2023-02-28T03:11:13;4.43;;;2.27;;
25391;SDS011;13329;48.402;11.718;2023-02-28T03:13:46;5.00;;;2.05;;
25391;SDS011;13329;48.402;11.718;2023-02-28T03:16:22;3.88;;;2.30;;
25391;SDS011;13329;48.402;11.718;2023-02-28T03:21:38;7.30;;;2.80;;
25391;SDS011;13329;48.402;11.718;2023-02-28T03:24:10;7.63;;;2.70;;
25391;SDS011;13329;48.402;11.718;2023-02-28T03:26:39;4.07;;;2.08;;
25391;SDS011;13329;48.402;11.718;2023-02-28T03:29:14;4.30;;;2.38;;
25391;SDS011;13329;48.402;11.718;2023-02-28T03:31:46;6.22;;;2.40;;
25391;SDS011;13329;48.402;11.718;2023-02-28T03:34:16;5.63;;;3.00;;
25391;SDS011;13329;48.402;11.718;2023-02-28T03:36:53;5.15;;;2.67;;
25391;SDS011;13329;48.402;11.718;2023-02-28T03:39:21;9.13;;;3.22;;
25391;SDS011;13329;48.402;11.718;2023-02-28T03:41:50;6.05;;;2.60;;
25391;SDS011;13329;48.402;11.718;2023-02-28T03:44:35;5.72;;;2.28;;
25391;SDS011;13329;48.402;11.718;2023-02-28T03:47:04;6.82;;;2.88;;
25391;SDS011;13329;48.402;11.718;2023-02-28T03:49:32;4.63;;;2.30;;
25391;SDS011;13329;48.402;11.718;2023-02-28T03:52:01;4.22;;;2.30;;
25391;SDS011;13329;48.402;11.718;2023-02-28T03:54:31;6.97;;;3.03;;
25391;SDS011;13329;48.402;11.718;2023-02-28T03:57:05;6.95;;;3.30;;
25391;SDS011;13329;48.402;11.718;2023-02-28T03:59:37;4.07;;;2.47;;
25391;SDS011;13329;48.402;11.718;2023-02-28T04:02:03;5.95;;;2.70;;
25391;SDS011;13329;48.402;11.718;2023-02-28T04:04:28;3.92;;;2.45;;
25391;SDS011;13329;48.402;11.718;2023-02-28T04:06:53;9.40;;;2.60;;
25391;SDS011;13329;48.402;11.718;2023-02-28T04:09:25;6.70;;;3.23;;
25391;SDS011;13329;48.402;11.718;2023-02-28T04:11:51;6.07;;;3.08;;
25391;SDS011;13329;48.402;11.718;2023-02-28T04:14:17;5.40;;;2.38;;
25391;SDS011;13329;48.402;11.718;2023-02-28T04:16:42;7.78;;;2.95;;
25391;SDS011;13329;48.402;11.718;2023-02-28T04:19:08;6.87;;;3.10;;
25391;SDS011;13329;48.402;11.718;2023-02-28T04:21:35;5.57;;;2.67;;
25391;SDS011;13329;48.402;11.718;2023-02-28T04:24:00;6.82;;;2.80;;
25391;SDS011;13329;48.402;11.718;2023-02-28T04:26:29;9.02;;;3.50;;
25391;SDS011;13329;48.402;11.718;2023-02-28T04:28:55;6.88;;;2.50;;
25391;SDS011;13329;48.402;11.718;2023-02-28T04:31:20;7.40;;;2.92;;
25391;SDS011;13329;48.402;11.718;2023-02-28T04:33:45;7.10;;;2.77;;
25391;SDS011;13329;48.402;11.718;2023-02-28T04:36:10;7.07;;;3.23;;
25391;SDS011;13329;48.402;11.718;2023-02-28T04:38:36;10.20;;;3.30;;
25391;SDS011;13329;48.402;11.718;2023-02-28T04:41:02;8.70;;;3.60;;
25391;SDS011;13329;48.402;11.718;2023-02-28T04:43:28;7.45;;;3.13;;
25391;SDS011;13329;48.402;11.718;2023-02-28T04:45:54;6.57;;;3.20;;
25391;SDS011;13329;48.402;11.718;2023-02-28T04:48:21;6.13;;;2.97;;
25391;SDS011;13329;48.402;11.718;2023-02-28T04:50:47;5.38;;;3.42;;
25391;SDS011;13329;48.402;11.718;2023-02-28T04:53:12;7.80;;;3.50;;
25391;SDS011;13329;48.402;11.718;2023-02-28T04:55:37;4.95;;;2.90;;
25391;SDS011;13329;48.402;11.718;2023-02-28T04:58:04;9.80;;;3.50;;
25391;SDS011;13329;48.402;11.718;2023-02-28T05:00:30;6.03;;;2.83;;
25391;SDS011;13329;48.402;11.718;2023-02-28T05:02:55;5.90;;;3.13;;
25391;SDS011;13329;48.402;11.718;2023-02-28T05:05:20;7.10;;;3.23;;
25391;SDS011;13329;48.402;11.718;2023-02-28T05:07:45;8.02;;;3.35;;
25391;SDS011;13329;48.402;11.718;2023-02-28T05:10:11;6.45;;;2.85;;
25391;SDS011;13329;48.402;11.718;2023-02-28T05:12:36;7.43;;;3.45;;
25391;SDS011;13329;48.402;11.718;2023-02-28T05:15:01;9.73;;;3.53;;
25391;SDS011;13329;48.402;11.718;2023-02-28T05:17:27;7.93;;;2.97;;
25391;SDS011;13329;48.402;11.718;2023-02-28T05:19:52;12.27;;;3.40;;
25391;SDS011;13329;48.402;11.718;2023-02-28T05:22:17;6.88;;;3.00;;
25391;SDS011;13329;48.402;11.718;2023-02-28T05:24:42;8.95;;;3.63;;
25391;SDS011;13329;48.402;11.718;2023-02-28T05:27:07;7.30;;;3.67;;
25391;SDS011;13329;48.402;11.718;2023-02-28T05:29:33;7.60;;;3.60;;
25391;SDS011;13329;48.402;11.718;2023-02-28T05:31:59;7.80;;;3.40;;
25391;SDS011;13329;48.402;11.718;2023-02-28T05:34:24;5.93;;;3.00;;
25391;SDS011;13329;48.402;11.718;2023-02-28T05:36:49;9.30;;;3.83;;
25391;SDS011;13329;48.402;11.718;2023-02-28T05:39:14;7.45;;;3.60;;
25391;SDS011;13329;48.402;11.718;2023-02-28T05:41:40;6.57;;;2.93;;
25391;SDS011;13329;48.402;11.718;2023-02-28T05:44:05;8.02;;;3.35;;
25391;SDS011;13329;48.402;11.718;2023-02-28T05:46:30;7.45;;;3.97;;
25391;SDS011;13329;48.402;11.718;2023-02-28T05:48:56;13.52;;;3.08;;
25391;SDS011;13329;48.402;11.718;2023-02-28T05:51:22;9.20;;;3.67;;
25391;SDS011;13329;48.402;11.718;2023-02-28T05:53:47;6.90;;;3.80;;
25391;SDS011;13329;48.402;11.718;2023-02-28T05:56:14;8.45;;;3.67;;
25391;SDS011;13329;48.402;11.718;2023-02-28T05:58:39;7.30;;;3.43;;
25391;SDS011;13329;48.402;11.718;2023-02-28T06:03:48;11.05;;;3.15;;
25391;SDS011;13329;48.402;11.718;2023-02-28T06:06:13;10.38;;;3.88;;
25391;SDS011;13329;48.402;11.718;2023-02-28T06:08:38;7.55;;;3.20;;
25391;SDS011;13329;48.402;11.718;2023-02-28T06:11:04;9.73;;;3.75;;
25391;SDS011;13329;48.402;11.718;2023-02-28T06:13:29;8.52;;;3.90;;
25391;SDS011;13329;48.402;11.718;2023-02-28T06:15:54;7.53;;;3.45;;
25391;SDS011;13329;48.402;11.718;2023-02-28T06:18:19;6.53;;;3.35;;
25391;SDS011;13329;48.402;11.718;2023-02-28T06:20:45;8.97;;;4.20;;
25391;SDS011;13329;48.402;11.718;2023-02-28T06:23:17;8.77;;;3.67;;
25391;SDS011;13329;48.402;11.718;2023-02-28T06:25:44;13.68;;;4.40;;
25391;SDS011;13329;48.402;11.718;2023-02-28T06:28:09;14.82;;;4.07;;
25391;SDS011;13329;48.402;11.718;2023-02-28T06:30:34;6.72;;;3.50;;
25391;SDS011;13329;48.402;11.718;2023-02-28T06:33:01;8.38;;;4.25;;
25391;SDS011;13329;48.402;11.718;2023-02-28T06:35:26;11.82;;;4.32;;
25391;SDS011;13329;48.402;11.718;2023-02-28T06:37:51;5.80;;;3.40;;
25391;SDS011;13329;48.402;11.718;2023-02-28T06:40:16;8.17;;;3.67;;
25391;SDS011;13329;48.402;11.718;2023-02-28T06:42:42;11.15;;;4.05;;
25391;SDS011;13329;48.402;11.718;2023-02-28T06:45:07;9.88;;;4.70;;
25391;SDS011;13329;48.402;11.718;2023-02-28T06:47:34;7.20;;;3.50;;
25391;SDS011;13329;48.402;11.718;2023-02-28T06:49:59;6.63;;;3.25;;
25391;SDS011;13329;48.402;11.718;2023-02-28T06:52:26;9.27;;;3.40;;
25391;SDS011;13329;48.402;11.718;2023-02-28T06:54:51;7.50;;;3.87;;
25391;SDS011;13329;48.402;11.718;2023-02-28T06:57:24;13.82;;;5.28;;
25391;SDS011;13329;48.402;11.718;2023-02-28T06:59:50;11.25;;;4.72;;
25391;SDS011;13329;48.402;11.718;2023-02-28T07:02:15;5.83;;;3.30;;
25391;SDS011;13329;48.402;11.718;2023-02-28T07:04:40;6.53;;;3.50;;
25391;SDS011;13329;48.402;11.718;2023-02-28T07:07:08;9.02;;;3.58;;
25391;SDS011;13329;48.402;11.718;2023-02-28T07:09:33;8.47;;;3.67;;
25391;SDS011;13329;48.402;11.718;2023-02-28T07:11:59;8.40;;;4.35;;
25391;SDS011;13329;48.402;11.718;2023-02-28T07:14:25;7.88;;;3.75;;
25391;SDS011;13329;48.402;11.718;2023-02-28T07:16:51;8.07;;;3.92;;
25391;SDS011;13329;48.402;11.718;2023-02-28T07:19:17;8.70;;;3.80;;
25391;SDS011;13329;48.402;11.718;2023-02-28T07:21:42;8.48;;;3.42;;
25391;SDS011;13329;48.402;11.718;2023-02-28T07:24:07;6.18;;;2.72;;
25391;SDS011;13329;48.402;11.718;2023-02-28T07:26:33;9.80;;;4.13;;
25391;SDS011;13329;48.402;11.718;2023-02-28T07:28:59;6.20;;;3.58;;
25391;SDS011;13329;48.402;11.718;2023-02-28T07:31:24;9.73;;;4.07;;
25391;SDS011;13329;48.402;11.718;2023-02-28T07:33:49;7.07;;;3.55;;
25391;SDS011;13329;48.402;11.718;2023-02-28T07:36:15;7.57;;;3.60;;
25391;SDS011;13329;48.402;11.718;2023-02-28T07:38:42;10.93;;;4.22;;
25391;SDS011;13329;48.402;11.718;2023-02-28T07:41:08;7.70;;;3.58;;
25391;SDS011;13329;48.402;11.718;2023-02-28T07:43:33;10.60;;;3.90;;
25391;SDS011;13329;48.402;11.718;2023-02-28T07:46:06;8.57;;;3.85;;
25391;SDS011;13329;48.402;11.718;2023-02-28T07:48:32;8.63;;;3.97;;
25391;SDS011;13329;48.402;11.718;2023-02-28T07:50:57;9.60;;;3.45;;
25391;SDS011;13329;48.402;11.718;2023-02-28T07:53:23;10.32;;;3.88;;
25391;SDS011;13329;48.402;11.718;2023-02-28T07:55:48;9.65;;;3.92;;
25391;SDS011;13329;48.402;11.718;2023-02-28T07:58:13;10.40;;;4.05;;
25391;SDS011;13329;48.402;11.718;2023-02-28T08:00:38;10.70;;;4.70;;
25391;SDS011;13329;48.402;11.718;2023-02-28T08:03:04;6.83;;;2.93;;
25391;SDS011;13329;48.402;11.718;2023-02-28T08:05:29;10.68;;;4.35;;
25391;SDS011;13329;48.402;11.718;2023-02-28T08:07:55;10.25;;;3.90;;
25391;SDS011;13329;48.402;11.718;2023-02-28T08:10:20;7.72;;;3.72;;
25391;SDS011;13329;48.402;11.718;2023-02-28T08:12:45;9.88;;;4.07;;
25391;SDS011;13329;48.402;11.718;2023-02-28T08:15:10;9.27;;;3.97;;
25391;SDS011;13329;48.402;11.718;2023-02-28T08:17:35;7.30;;;3.67;;
25391;SDS011;13329;48.402;11.718;2023-02-28T08:20:01;7.97;;;4.20;;
25391;SDS011;13329;48.402;11.718;2023-02-28T08:22:26;14.33;;;4.33;;
25391;SDS011;13329;48.402;11.718;2023-02-28T08:24:51;5.35;;;3.72;;
25391;SDS011;13329;48.402;11.718;2023-02-28T08:27:16;7.43;;;3.87;;
25391;SDS011;13329;48.402;11.718;2023-02-28T08:29:42;10.38;;;4.07;;
25391;SDS011;13329;48.402;11.718;2023-02-28T08:32:07;11.35;;;4.32;;
25391;SDS011;13329;48.402;11.718;2023-02-28T08:34:32;8.45;;;3.95;;
25391;SDS011;13329;48.402;11.718;2023-02-28T08:36:57;10.73;;;4.22;;
25391;SDS011;13329;48.402;11.718;2023-02-28T08:39:22;12.40;;;4.40;;
25391;SDS011;13329;48.402;11.718;2023-02-28T08:41:48;8.83;;;4.47;;
25391;SDS011;13329;48.402;11.718;2023-02-28T08:44:13;9.63;;;3.97;;
25391;SDS011;13329;48.402;11.718;2023-02-28T08:46:38;15.57;;;3.95;;
25391;SDS011;13329;48.402;11.718;2023-02-28T08:49:04;9.45;;;4.28;;
25391;SDS011;13329;48.402;11.718;2023-02-28T08:51:29;11.48;;;4.85;;
25391;SDS011;13329;48.402;11.718;2023-02-28T08:53:58;9.23;;;4.05;;
25391;SDS011;13329;48.402;11.718;2023-02-28T08:56:24;10.68;;;4.78;;
25391;SDS011;13329;48.402;11.718;2023-02-28T08:58:49;8.17;;;4.00;;
25391;SDS011;13329;48.402;11.718;2023-02-28T09:01:16;11.10;;;4.45;;
25391;SDS011;13329;48.402;11.718;2023-02-28T09:03:41;11.07;;;4.30;;
25391;SDS011;13329;48.402;11.718;2023-02-28T09:06:07;8.88;;;4.00;;
25391;SDS011;13329;48.402;11.718;2023-02-28T09:08:33;9.07;;;3.80;;
25391;SDS011;13329;48.402;11.718;2023-02-28T09:10:58;7.70;;;3.63;;
25391;SDS011;13329;48.402;11.718;2023-02-28T09:13:24;9.43;;;3.60;;
25391;SDS011;13329;48.402;11.718;2023-02-28T09:15:50;8.20;;;4.18;;
25391;SDS011;13329;48.402;11.718;2023-02-28T09:18:15;8.95;;;4.20;;
25391;SDS011;13329;48.402;11.718;2023-02-28T09:20:41;8.38;;;3.78;;
25391;SDS011;13329;48.402;11.718;2023-02-28T09:23:07;8.82;;;4.30;;
25391;SDS011;13329;48.402;11.718;2023-02-28T09:25:32;7.32;;;3.78;;
25391;SDS011;13329;48.402;11.718;2023-02-28T09:27:57;8.07;;;4.50;;
25391;SDS011;13329;48.402;11.718;2023-02-28T09:30:23;11.57;;;4.13;;
25391;SDS011;13329;48.402;11.718;2023-02-28T09:32:48;13.60;;;4.97;;
25391;SDS011;13329;48.402;11.718;2023-02-28T09:35:18;11.52;;;4.95;;
25391;SDS011;13329;48.402;11.718;2023-02-28T09:37:45;10.05;;;4.13;;
25391;SDS011;13329;48.402;11.718;2023-02-28T09:40:11;9.70;;;4.35;;
25391;SDS011;13329;48.402;11.718;2023-02-28T09:42:37;9.50;;;4.70;;
25391;SDS011;13329;48.402;11.718;2023-02-28T09:45:03;11.10;;;4.37;;
25391;SDS011;13329;48.402;11.718;2023-02-28T09:47:36;9.15;;;4.22;;
25391;SDS011;13329;48.402;11.718;2023-02-28T09:50:07;9.65;;;4.45;;
25391;SDS011;13329;48.402;11.718;2023-02-28T09:52:36;7.80;;;4.07;;
25391;SDS011;13329;48.402;11.718;2023-02-28T09:57:40;9.85;;;4.50;;
25391;SDS011;13329;48.402;11.718;2023-02-28T10:00:18;11.02;;;4.70;;
25391;SDS011;13329;48.402;11.718;2023-02-28T10:02:53;8.90;;;4.35;;
25391;SDS011;13329;48.402;11.718;2023-02-28T10:05:20;9.75;;;5.00;;
25391;SDS011;13329;48.402;11.718;2023-02-28T10:07:50;7.88;;;4.55;;
25391;SDS011;13329;48.402;11.718;2023-02-28T10:10:22;8.07;;;4.68;;
25391;SDS011;13329;48.402;11.718;2023-02-28T10:12:49;9.30;;;4.72;;
25391;SDS011;13329;48.402;11.718;2023-02-28T10:15:17;9.60;;;4.63;;
25391;SDS011;13329;48.402;11.718;2023-02-28T10:17:42;7.28;;;4.60;;
25391;SDS011;13329;48.402;11.718;2023-02-28T10:20:12;7.38;;;4.50;;
25391;SDS011;13329;48.402;11.718;2023-02-28T10:22:57;10.82;;;4.57;;
25391;SDS011;13329;48.402;11.718;2023-02-28T10:25:25;8.43;;;4.40;;
25391;SDS011;13329;48.402;11.718;2023-02-28T10:27:52;6.30;;;3.60;;
25391;SDS011;13329;48.402;11.718;2023-02-28T10:30:18;10.43;;;4.68;;
25391;SDS011;13329;48.402;11.718;2023-02-28T10:32:47;7.88;;;4.55;;
25391;SDS011;13329;48.402;11.718;2023-02-28T10:35:17;12.00;;;4.30;;
25391;SDS011;13329;48.402;11.718;2023-02-28T10:37:43;9.38;;;5.00;;
25391;SDS011;13329;48.402;11.718;2023-02-28T10:40:32;10.88;;;5.53;;
25391;SDS011;13329;48.402;11.718;2023-02-28T10:43:05;11.38;;;4.93;;
25391;SDS011;13329;48.402;11.718;2023-02-28T10:45:33;7.97;;;4.45;;
25391;SDS011;13329;48.402;11.718;2023-02-28T10:48:24;8.00;;;5.13;;
25391;SDS011;13329;48.402;11.718;2023-02-28T10:50:51;9.45;;;4.47;;
25391;SDS011;13329;48.402;11.718;2023-02-28T11:01:21;7.82;;;4.78;;
25391;SDS011;13329;48.402;11.718;2023-02-28T11:03:46;11.27;;;5.05;;
25391;SDS011;13329;48.402;11.718;2023-02-28T11:06:13;9.35;;;4.82;;
25391;SDS011;13329;48.402;11.718;2023-02-28T11:08:50;8.90;;;4.55;;
25391;SDS011;13329;48.402;11.718;2023-02-28T11:11:16;10.35;;;5.22;;
25391;SDS011;13329;48.402;11.718;2023-02-28T11:13:42;10.23;;;4.60;;
25391;SDS011;13329;48.402;11.718;2023-02-28T11:16:09;9.60;;;5.13;;
25391;SDS011;13329;48.402;11.718;2023-02-28T11:18:42;10.18;;;5.07;;
25391;SDS011;13329;48.402;11.718;2023-02-28T11:21:09;7.43;;;4.88;;
25391;SDS011;13329;48.402;11.718;2023-02-28T11:23:36;11.43;;;5.07;;
25391;SDS011;13329;48.402;11.718;2023-02-28T11:26:02;10.02;;;5.05;;
25391;SDS011;13329;48.402;11.718;2023-02-28T11:28:33;10.43;;;4.97;;
25391;SDS011;13329;48.402;11.718;2023-02-28T11:31:03;9.65;;;5.20;;
25391;SDS011;13329;48.402;11.718;2023-02-28T11:33:30;10.15;;;5.45;;
25391;SDS011;13329;48.402;11.718;2023-02-28T11:36:01;7.38;;;4.32;;
25391;SDS011;13329;48.402;11.718;2023-02-28T11:38:27;9.13;;;5.18;;
25391;SDS011;13329;48.402;11.718;2023-02-28T11:41:00;11.52;;;5.25;;
25391;SDS011;13329;48.402;11.718;2023-02-28T11:51:21;8.93;;;4.80;;
25391;SDS011;13329;48.402;11.718;2023-02-28T11:56:25;12.48;;;5.38;;
25391;SDS011;13329;48.402;11.718;2023-02-28T11:58:59;9.13;;;4.68;;
25391;SDS011;13329;48.402;11.718;2023-02-28T12:06:52;8.65;;;5.15;;
25391;SDS011;13329;48.402;11.718;2023-02-28T12:09:30;10.82;;;5.25;;
25391;SDS011;13329;48.402;11.718;2023-02-28T12:12:06;8.55;;;4.97;;
25391;SDS011;13329;48.402;11.718;2023-02-28T12:19:54;9.52;;;4.90;;
25391;SDS011;13329;48.402;11.718;2023-02-28T12:27:26;10.50;;;5.65;;
25391;SDS011;13329;48.402;11.718;2023-02-28T12:29:53;12.23;;;5.60;;
25391;SDS011;13329;48.402;11.718;2023-02-28T12:32:23;10.40;;;5.32;;
25391;SDS011;13329;48.402;11.718;2023-02-28T12:37:36;8.55;;;5.03;;
25391;SDS011;13329;48.402;11.718;2023-02-28T12:40:05;8.43;;;5.00;;
25391;SDS011;13329;48.402;11.718;2023-02-28T12:42:32;8.65;;;5.13;;
25391;SDS011;13329;48.402;11.718;2023-02-28T12:45:01;10.35;;;5.70;;
25391;SDS011;13329;48.402;11.718;2023-02-28T12:47:26;11.50;;;5.40;;
25391;SDS011;13329;48.402;11.718;2023-02-28T12:49:53;7.45;;;4.50;;
25391;SDS011;13329;48.402;11.718;2023-02-28T12:52:23;10.45;;;5.20;;
25391;SDS011;13329;48.402;11.718;2023-02-28T12:54:51;8.10;;;5.10;;
25391;SDS011;13329;48.402;11.718;2023-02-28T12:59:48;9.07;;;4.70;;
25391;SDS011;13329;48.402;11.718;2023-02-28T13:02:22;11.40;;;5.80;;
25391;SDS011;13329;48.402;11.718;2023-02-28T13:04:57;10.88;;;5.65;;
25391;SDS011;13329;48.402;11.718;2023-02-28T13:09:54;9.93;;;5.43;;
25391;SDS011;13329;48.402;11.718;2023-02-28T13:12:19;9.25;;;5.10;;
25391;SDS011;13329;48.402;11.718;2023-02-28T13:14:45;10.95;;;5.97;;
25391;SDS011;13329;48.402;11.718;2023-02-28T13:17:11;12.68;;;5.38;;
25391;SDS011;13329;48.402;11.718;2023-02-28T13:19:38;9.38;;;5.63;;
25391;SDS011;13329;48.402;11.718;2023-02-28T13:22:04;8.85;;;5.18;;
25391;SDS011;13329;48.402;11.718;2023-02-28T13:24:38;11.02;;;5.50;;
25391;SDS011;13329;48.402;11.718;2023-02-28T13:29:32;8.87;;;6.03;;
25391;SDS011;13329;48.402;11.718;2023-02-28T13:34:27;13.15;;;6.15;;
25391;SDS011;13329;48.402;11.718;2023-02-28T13:37:29;8.53;;;5.33;;
25391;SDS011;13329;48.402;11.718;2023-02-28T13:45:29;9.27;;;5.82;;
25391;SDS011;13329;48.402;11.718;2023-02-28T13:47:35;12.35;;;5.95;;
25391;SDS011;13329;48.402;11.718;2023-02-28T13:50:20;11.20;;;5.40;;
25391;SDS011;13329;48.402;11.718;2023-02-28T13:52:48;7.95;;;4.82;;
25391;SDS011;13329;48.402;11.718;2023-02-28T14:05:25;9.32;;;5.82;;
25391;SDS011;13329;48.402;11.718;2023-02-28T14:07:55;9.32;;;5.60;;
25391;SDS011;13329;48.402;11.718;2023-02-28T14:10:31;11.07;;;5.60;;
25391;SDS011;13329;48.402;11.718;2023-02-28T14:13:01;10.00;;;5.60;;
25391;SDS011;13329;48.402;11.718;2023-02-28T14:17:58;10.68;;;6.07;;
25391;SDS011;13329;48.402;11.718;2023-02-28T14:20:25;14.75;;;6.47;;
25391;SDS011;13329;48.402;11.718;2023-02-28T14:22:56;10.63;;;5.75;;
25391;SDS011;13329;48.402;11.718;2023-02-28T14:25:40;12.85;;;6.25;;
25391;SDS011;13329;48.402;11.718;2023-02-28T14:31:00;13.00;;;5.82;;
25391;SDS011;13329;48.402;11.718;2023-02-28T14:38:35;10.43;;;5.75;;
25391;SDS011;13329;48.402;11.718;2023-02-28T14:41:03;9.73;;;5.10;;
25391;SDS011;13329;48.402;11.718;2023-02-28T14:43:29;13.77;;;5.88;;
25391;SDS011;13329;48.402;11.718;2023-02-28T14:45:55;9.00;;;5.17;;
25391;SDS011;13329;48.402;11.718;2023-02-28T14:48:21;12.80;;;5.97;;
25391;SDS011;13329;48.402;11.718;2023-02-28T14:50:54;10.55;;;5.35;;
25391;SDS011;13329;48.402;11.718;2023-02-28T14:53:21;10.73;;;5.22;;
25391;SDS011;13329;48.402;11.718;2023-02-28T14:55:48;9.15;;;4.97;;
25391;SDS011;13329;48.402;11.718;2023-02-28T14:58:50;11.05;;;5.00;;
25391;SDS011;13329;48.402;11.718;2023-02-28T15:01:05;8.73;;;4.90;;
25391;SDS011;13329;48.402;11.718;2023-02-28T15:03:32;12.07;;;5.55;;
25391;SDS011;13329;48.402;11.718;2023-02-28T15:06:01;11.43;;;6.15;;
25391;SDS011;13329;48.402;11.718;2023-02-28T15:08:27;8.98;;;5.20;;
25391;SDS011;13329;48.402;11.718;2023-02-28T15:11:13;13.20;;;5.90;;
25391;SDS011;13329;48.402;11.718;2023-02-28T15:13:49;10.43;;;5.53;;
25391;SDS011;13329;48.402;11.718;2023-02-28T15:16:19;10.77;;;5.70;;
25391;SDS011;13329;48.402;11.718;2023-02-28T15:24:04;11.57;;;5.75;;
25391;SDS011;13329;48.402;11.718;2023-02-28T15:26:32;11.82;;;6.03;;
25391;SDS011;13329;48.402;11.718;2023-02-28T15:28:59;12.15;;;5.63;;
25391;SDS011;13329;48.402;11.718;2023-02-28T15:31:44;11.40;;;5.50;;
25391;SDS011;13329;48.402;11.718;2023-02-28T15:34:15;11.35;;;5.68;;
25391;SDS011;13329;48.402;11.718;2023-02-28T15:36:43;11.45;;;5.40;;
25391;SDS011;13329;48.402;11.718;2023-02-28T15:39:21;9.40;;;5.47;;
25391;SDS011;13329;48.402;11.718;2023-02-28T15:41:47;11.98;;;6.03;;
25391;SDS011;13329;48.402;11.718;2023-02-28T15:44:25;10.73;;;5.73;;
25391;SDS011;13329;48.402;11.718;2023-02-28T15:47:05;13.50;;;5.63;;
25391;SDS011;13329;48.402;11.718;2023-02-28T15:49:40;12.90;;;5.20;;
25391;SDS011;13329;48.402;11.718;2023-02-28T15:52:12;16.08;;;5.40;;
25391;SDS011;13329;48.402;11.718;2023-02-28T15:54:38;11.52;;;5.10;;
25391;SDS011;13329;48.402;11.718;2023-02-28T15:57:04;9.17;;;4.93;;
25391;SDS011;13329;48.402;11.718;2023-02-28T15:59:33;11.32;;;5.03;;
25391;SDS011;13329;48.402;11.718;2023-02-28T16:02:18;11.60;;;5.40;;
25391;SDS011;13329;48.402;11.718;2023-02-28T16:07:28;12.93;;;5.15;;
25391;SDS011;13329;48.402;11.718;2023-02-28T16:09:54;11.13;;;5.60;;
25391;SDS011;13329;48.402;11.718;2023-02-28T16:12:20;12.18;;;5.75;;
25391;SDS011;13329;48.402;11.718;2023-02-28T16:14:45;11.05;;;5.25;;
25391;SDS011;13329;48.402;11.718;2023-02-28T16:17:31;11.90;;;5.65;;
25391;SDS011;13329;48.402;11.718;2023-02-28T16:19:57;11.90;;;5.25;;
25391;SDS011;13329;48.402;11.718;2023-02-28T16:22:23;13.20;;;5.65;;
25391;SDS011;13329;48.402;11.718;2023-02-28T16:24:48;13.10;;;5.17;;
25391;SDS011;13329;48.402;11.718;2023-02-28T16:27:33;13.53;;;5.63;;